createdAt,value
2023-01-02T00:01:44.412Z,11.40
2023-01-02T00:04:11.271Z,11.60
2023-01-02T00:06:38.909Z,11.50
2023-01-02T00:09:07.279Z,11.50
2023-01-02T00:11:34.241Z,11.40
2023-01-02T00:14:01.257Z,11.50
2023-01-02T00:16:28.120Z,11.50
2023-01-02T00:18:55.090Z,11.40
2023-01-02T00:21:21.932Z,11.40
2023-01-02T00:23:48.770Z,11.40
2023-01-02T00:26:15.584Z,11.40
2023-01-02T00:28:42.525Z,11.40
2023-01-02T00:31:11.316Z,11.40
2023-01-02T00:33:38.702Z,11.50
2023-01-02T00:36:11.249Z,11.50
2023-01-02T00:38:39.479Z,11.40
2023-01-02T00:41:07.372Z,11.50
2023-01-02T00:43:34.444Z,11.60
2023-01-02T00:46:04.913Z,11.40
2023-01-02T00:48:36.219Z,11.50
2023-01-02T00:51:03.123Z,11.50
2023-01-02T00:53:29.909Z,11.50
2023-01-02T00:55:56.816Z,11.60
2023-01-02T00:58:23.603Z,11.50
2023-01-02T01:00:50.849Z,11.60
2023-01-02T01:03:18.070Z,11.70
2023-01-02T01:05:44.887Z,11.70
2023-01-02T01:08:11.755Z,11.80
2023-01-02T01:10:38.774Z,11.90
2023-01-02T01:13:06.067Z,12.00
2023-01-02T01:15:34.054Z,12.00
2023-01-02T01:18:00.934Z,12.10
2023-01-02T01:20:27.990Z,12.20
2023-01-02T01:22:54.825Z,12.10
2023-01-02T01:25:21.686Z,12.10
2023-01-02T01:27:48.505Z,12.20
2023-01-02T01:30:15.375Z,12.20
2023-01-02T01:32:42.265Z,12.20
2023-01-02T01:35:09.288Z,12.30
2023-01-02T01:37:38.994Z,12.40
2023-01-02T01:40:06.824Z,12.50
2023-01-02T01:42:34.623Z,12.30
2023-01-02T01:45:01.771Z,12.40
2023-01-02T01:47:43.839Z,12.30
2023-01-02T01:50:16.812Z,12.30
2023-01-02T01:52:49.905Z,12.30
2023-01-02T01:55:25.632Z,12.40
2023-01-02T01:58:07.535Z,12.60
2023-01-02T02:00:35.431Z,12.60
2023-01-02T02:03:06.935Z,12.60
2023-01-02T02:05:34.750Z,12.70
2023-01-02T02:08:33.766Z,12.70
2023-01-02T02:11:02.019Z,12.70
2023-01-02T02:13:31.553Z,12.70
2023-01-02T02:16:04.221Z,12.80
2023-01-02T02:18:45.312Z,12.80
2023-01-02T02:21:24.126Z,12.80
2023-01-02T02:24:12.579Z,12.90
2023-01-02T02:27:16.550Z,13.00
2023-01-02T02:30:08.020Z,13.00
2023-01-02T02:33:08.474Z,13.20
2023-01-02T02:35:57.831Z,13.40
2023-01-02T02:38:49.978Z,13.50
2023-01-02T02:41:38.717Z,13.60
2023-01-02T02:44:41.565Z,13.40
2023-01-02T02:47:20.384Z,13.30
2023-01-02T02:50:03.571Z,13.10
2023-01-02T02:52:36.241Z,13.10
2023-01-02T02:55:17.002Z,13.10
2023-01-02T02:57:45.319Z,13.10
2023-01-02T03:00:19.693Z,13.00
2023-01-02T03:02:46.832Z,13.00
2023-01-02T03:05:21.710Z,13.00
2023-01-02T03:08:07.357Z,12.90
2023-01-02T03:10:50.115Z,12.90
2023-01-02T03:17:14.971Z,12.80
2023-01-02T03:19:45.498Z,12.70
2023-01-02T03:22:14.457Z,12.60
2023-01-02T03:24:44.326Z,12.50
2023-01-02T03:27:17.354Z,12.30
2023-01-02T03:30:02.155Z,12.40
2023-01-02T03:32:49.732Z,12.20
2023-01-02T03:35:21.896Z,12.10
2023-01-02T03:37:53.165Z,12.10
2023-01-02T03:40:25.726Z,12.10
2023-01-02T03:43:01.679Z,12.10
2023-01-02T03:45:43.038Z,12.20
2023-01-02T03:48:38.618Z,12.20
2023-01-02T03:51:05.892Z,12.20
2023-01-02T03:53:34.872Z,12.20
2023-01-02T03:56:08.268Z,12.20
2023-01-02T03:58:50.389Z,12.30
2023-01-02T04:01:39.359Z,12.40
2023-01-02T04:04:15.440Z,12.50
2023-01-02T04:06:48.067Z,12.60
2023-01-02T04:09:20.842Z,12.60
2023-01-02T04:11:53.729Z,12.60
2023-01-02T04:14:30.907Z,12.70
2023-01-02T04:17:00.926Z,12.70
2023-01-02T04:19:32.730Z,12.70
2023-01-02T04:22:03.267Z,12.60
2023-01-02T04:24:34.010Z,12.50
2023-01-02T04:27:06.493Z,12.40
2023-01-02T04:29:33.450Z,12.60
2023-01-02T04:32:11.996Z,12.50
2023-01-02T04:34:40.527Z,12.60
2023-01-02T04:37:07.320Z,12.60
2023-01-02T04:39:36.443Z,12.60
2023-01-02T04:42:03.311Z,12.80
2023-01-02T04:44:30.246Z,12.80
2023-01-02T04:46:57.031Z,12.80
2023-01-02T04:49:26.725Z,12.70
2023-01-02T04:51:53.726Z,12.70
2023-01-02T04:54:20.549Z,12.70
2023-01-02T04:56:47.354Z,12.60
2023-01-02T04:59:14.175Z,12.50
2023-01-02T05:01:41.046Z,12.40
2023-01-02T05:04:07.902Z,12.40
2023-01-02T05:06:34.738Z,12.30
2023-01-02T05:09:01.644Z,12.30
2023-01-02T05:11:28.459Z,12.30
2023-01-02T05:13:55.265Z,12.20
2023-01-02T05:16:22.181Z,12.30
2023-01-02T05:18:49.043Z,12.20
2023-01-02T05:21:34.488Z,12.10
2023-01-02T05:24:03.369Z,12.10
2023-01-02T05:26:32.906Z,12.00
2023-01-02T05:29:00.540Z,11.90
2023-01-02T05:31:28.226Z,12.00
2023-01-02T05:33:57.157Z,11.90
2023-01-02T05:36:25.378Z,11.90
2023-01-02T05:38:52.810Z,11.80
2023-01-02T05:41:20.673Z,11.80
2023-01-02T05:43:47.522Z,11.80
2023-01-02T05:46:19.162Z,11.80
2023-01-02T05:48:47.129Z,11.70
2023-01-02T05:51:15.784Z,11.70
2023-01-02T05:53:42.734Z,11.70
2023-01-02T05:56:17.934Z,11.80
2023-01-02T05:58:46.762Z,11.70
2023-01-02T06:01:16.537Z,11.70
2023-01-02T06:03:48.254Z,11.70
2023-01-02T06:06:16.236Z,11.60
2023-01-02T06:08:43.133Z,11.70
2023-01-02T06:11:10.045Z,11.80
2023-01-02T06:13:38.422Z,11.80
2023-01-02T06:16:06.840Z,11.80
2023-01-02T06:18:35.238Z,12.00
2023-01-02T06:21:04.340Z,12.10
2023-01-02T06:23:31.163Z,12.20
2023-01-02T06:26:18.832Z,12.40
2023-01-02T06:28:46.551Z,12.40
2023-01-02T06:31:16.040Z,12.60
2023-01-02T06:33:43.736Z,12.50
2023-01-02T06:36:18.454Z,12.70
2023-01-02T06:38:46.267Z,12.80
2023-01-02T06:41:14.427Z,12.90
2023-01-02T06:43:44.335Z,12.90
2023-01-02T06:46:12.756Z,13.00
2023-01-02T06:48:40.506Z,13.00
2023-01-02T06:51:09.218Z,13.10
2023-01-02T06:53:38.307Z,13.10
2023-01-02T06:56:06.173Z,13.10
2023-01-02T06:58:35.749Z,13.20
2023-01-02T07:01:08.669Z,13.20
2023-01-02T07:03:36.015Z,13.30
2023-01-02T07:06:07.560Z,13.40
2023-01-02T07:08:34.636Z,13.40
2023-01-02T07:11:15.925Z,13.40
2023-01-02T07:13:46.360Z,13.40
2023-01-02T07:16:15.711Z,13.50
2023-01-02T07:18:42.927Z,13.60
2023-01-02T07:21:11.244Z,13.60
2023-01-02T07:23:38.283Z,13.50
2023-01-02T07:26:07.108Z,13.40
2023-01-02T07:28:35.228Z,13.30
2023-01-02T07:31:04.568Z,13.20
2023-01-02T07:33:32.653Z,13.20
2023-01-02T07:35:59.836Z,13.20
2023-01-02T07:38:26.899Z,13.10
2023-01-02T07:40:54.124Z,13.00
2023-01-02T07:43:21.522Z,13.10
2023-01-02T07:45:50.525Z,13.10
2023-01-02T07:48:18.391Z,13.10
2023-01-02T07:50:45.490Z,13.20
2023-01-02T07:53:12.558Z,13.10
2023-01-02T07:55:39.335Z,13.10
2023-01-02T07:58:07.228Z,13.10
2023-01-02T08:00:34.312Z,13.20
2023-01-02T08:03:01.229Z,13.20
2023-01-02T08:05:28.108Z,13.20
2023-01-02T08:07:54.956Z,13.20
2023-01-02T08:10:21.832Z,13.30
2023-01-02T08:12:48.605Z,13.30
2023-01-02T08:15:15.509Z,13.30
2023-01-02T08:17:42.459Z,13.40
2023-01-02T08:20:10.488Z,13.40
2023-01-02T08:22:37.620Z,13.30
2023-01-02T08:25:04.900Z,13.40
2023-01-02T08:27:32.043Z,13.30
2023-01-02T08:29:59.045Z,13.30
2023-01-02T08:32:26.339Z,13.30
2023-01-02T08:34:53.472Z,13.30
2023-01-02T08:37:20.580Z,13.20
2023-01-02T08:39:47.491Z,13.20
2023-01-02T08:42:14.258Z,13.20
2023-01-02T08:44:41.117Z,13.20
2023-01-02T08:47:08.008Z,13.10
2023-01-02T08:49:34.889Z,13.10
2023-01-02T08:52:01.872Z,13.10
2023-01-02T08:54:28.814Z,13.10
2023-01-02T08:56:55.651Z,13.10
2023-01-02T08:59:24.762Z,13.10
2023-01-02T09:01:52.566Z,13.10
2023-01-02T09:04:20.437Z,13.10
2023-01-02T09:06:48.141Z,13.10
2023-01-02T09:09:16.578Z,13.10
2023-01-02T09:11:50.556Z,13.10
2023-01-02T09:14:19.724Z,13.10
2023-01-02T09:16:47.373Z,13.20
2023-01-02T09:19:14.239Z,13.10
2023-01-02T09:21:41.671Z,13.10
2023-01-02T09:24:08.824Z,13.00
2023-01-02T09:26:37.977Z,12.80
2023-01-02T09:29:05.498Z,12.70
2023-01-02T09:31:32.535Z,12.60
2023-01-02T09:33:59.411Z,12.50
2023-01-02T09:36:26.400Z,12.60
2023-01-02T09:38:57.697Z,12.50
2023-01-02T09:41:33.078Z,12.50
2023-01-02T09:44:03.037Z,12.50
2023-01-02T09:46:36.835Z,12.40
2023-01-02T09:49:04.438Z,12.40
2023-01-02T09:51:34.439Z,12.30
2023-01-02T09:54:01.583Z,12.40
2023-01-02T09:56:34.372Z,12.30
2023-01-02T09:59:07.545Z,12.30
2023-01-02T10:02:00.831Z,12.40
2023-01-02T10:04:48.118Z,12.50
2023-01-02T10:07:38.640Z,12.50
2023-01-02T10:10:28.792Z,12.60
2023-01-02T10:12:58.449Z,12.60
2023-01-02T10:15:28.153Z,12.60
2023-01-02T10:18:16.033Z,12.60
2023-01-02T10:20:47.775Z,12.50
2023-01-02T10:23:25.960Z,12.40
2023-01-02T10:26:01.666Z,12.30
2023-01-02T10:28:42.532Z,12.10
2023-01-02T10:31:19.230Z,12.10
2023-01-02T10:34:11.965Z,12.00
2023-01-02T10:36:43.654Z,11.90
2023-01-02T10:39:18.807Z,11.80
2023-01-02T10:41:50.115Z,11.80
2023-01-02T10:44:27.517Z,11.70
2023-01-02T10:46:56.826Z,11.70
2023-01-02T10:49:25.611Z,11.70
2023-01-02T10:52:06.396Z,11.70
2023-01-02T10:54:55.006Z,11.70
2023-01-02T10:57:46.006Z,11.60
2023-01-02T11:00:24.081Z,11.60
2023-01-02T11:03:00.635Z,11.60
2023-01-02T11:05:30.827Z,11.50
2023-01-02T11:07:58.187Z,11.40
2023-01-02T11:10:32.352Z,11.40
2023-01-02T11:13:03.676Z,11.40
2023-01-02T11:15:34.876Z,11.40
2023-01-02T11:18:10.907Z,11.40
2023-01-02T11:20:38.138Z,11.40
2023-01-02T11:23:06.084Z,11.50
2023-01-02T11:25:39.380Z,11.40
2023-01-02T11:28:07.291Z,11.40
2023-01-02T11:30:44.118Z,11.30
2023-01-02T11:33:13.985Z,11.30
2023-01-02T11:35:56.339Z,11.30
2023-01-02T11:38:29.432Z,11.20
2023-01-02T11:41:02.213Z,11.20
2023-01-02T11:43:49.878Z,11.10
2023-01-02T11:46:23.631Z,11.10
2023-01-02T11:48:54.041Z,11.00
2023-01-02T11:51:21.924Z,11.00
2023-01-02T11:53:53.153Z,10.90
2023-01-02T11:56:27.044Z,10.80
2023-01-02T11:59:18.921Z,10.90
2023-01-02T12:01:59.605Z,10.80
2023-01-02T12:04:26.962Z,10.80
2023-01-02T12:07:08.574Z,10.80
2023-01-02T12:09:54.226Z,10.80
2023-01-02T12:12:55.629Z,10.70
2023-01-02T12:15:34.354Z,10.70
2023-01-02T12:18:24.328Z,10.60
2023-01-02T12:21:06.352Z,10.60
2023-01-02T12:23:45.062Z,10.60
2023-01-02T12:26:20.488Z,10.60
2023-01-02T12:29:47.177Z,10.50
2023-01-02T12:32:41.193Z,10.60
2023-01-02T12:35:29.304Z,10.60
2023-01-02T12:38:00.779Z,10.70
2023-01-02T12:40:51.501Z,10.60
2023-01-02T12:43:27.220Z,10.70
2023-01-02T12:46:27.021Z,10.70
2023-01-02T12:49:15.893Z,10.80
2023-01-02T12:52:20.378Z,10.80
2023-01-02T12:55:05.217Z,10.80
2023-01-02T12:57:52.572Z,10.70
2023-01-02T13:00:19.417Z,10.60
2023-01-02T13:03:11.032Z,10.60
2023-01-02T13:05:47.204Z,10.60
2023-01-02T13:08:28.477Z,10.60
2023-01-02T13:10:59.329Z,10.70
2023-01-02T13:13:32.019Z,10.70
2023-01-02T13:16:10.350Z,10.60
2023-01-02T13:19:14.613Z,10.60
2023-01-02T13:21:52.551Z,10.70
2023-01-02T13:24:23.931Z,10.70
2023-01-02T13:26:52.909Z,10.60
2023-01-02T13:29:25.888Z,10.50
2023-01-02T13:31:54.998Z,10.40
2023-01-02T13:34:26.703Z,10.20
2023-01-02T13:37:13.258Z,10.20
2023-01-02T13:39:40.035Z,10.10
2023-01-02T13:42:27.692Z,10.10
2023-01-02T13:44:58.314Z,10.20
2023-01-02T13:47:36.465Z,10.30
2023-01-02T13:50:12.947Z,10.30
2023-01-02T13:52:40.993Z,10.30
2023-01-02T13:55:31.941Z,10.50
2023-01-02T13:58:20.305Z,10.50
2023-01-02T14:00:55.163Z,10.40
2023-01-02T14:03:25.498Z,10.40
2023-01-02T14:06:04.798Z,10.50
2023-01-02T14:08:42.367Z,10.50
2023-01-02T14:11:26.737Z,10.40
2023-01-02T14:13:55.527Z,10.40
2023-01-02T14:16:25.453Z,10.40
2023-01-02T14:19:13.417Z,10.50
2023-01-02T14:21:58.124Z,10.30
2023-01-02T14:24:37.314Z,10.30
2023-01-02T14:27:32.941Z,10.30
2023-01-02T14:30:11.477Z,10.20
2023-01-02T14:32:44.119Z,10.20
2023-01-02T14:35:10.891Z,10.20
2023-01-02T14:37:40.756Z,10.20
2023-01-02T14:40:21.217Z,10.30
2023-01-02T14:43:20.539Z,10.20
2023-01-02T14:46:10.311Z,10.20
2023-01-02T14:49:25.795Z,10.20
2023-01-02T14:52:01.972Z,10.20
2023-01-02T14:54:51.013Z,10.10
2023-01-02T14:57:31.455Z,10.10
2023-01-02T15:00:02.663Z,10.00
2023-01-02T15:02:38.224Z,9.90
2023-01-02T15:05:12.275Z,9.80
2023-01-02T15:07:47.365Z,9.80
2023-01-02T15:10:21.513Z,9.70
2023-01-02T15:13:03.635Z,9.60
2023-01-02T15:15:38.466Z,9.60
2023-01-02T15:18:29.343Z,9.50
2023-01-02T15:21:08.851Z,9.50
2023-01-02T15:23:36.981Z,9.50
2023-01-02T15:26:32.921Z,9.50
2023-01-02T15:29:05.547Z,9.40
2023-01-02T15:31:32.622Z,9.40
2023-01-02T15:34:01.177Z,9.40
2023-01-02T15:36:32.863Z,9.30
2023-01-02T15:39:13.419Z,9.40
2023-01-02T15:41:45.950Z,9.30
2023-01-02T15:44:31.711Z,9.30
2023-01-02T15:46:59.437Z,9.20
2023-01-02T15:49:27.041Z,9.20
2023-01-02T15:51:57.432Z,9.20
2023-01-02T15:54:24.533Z,9.20
2023-01-02T15:56:51.416Z,9.20
2023-01-02T15:59:26.053Z,9.10
2023-01-02T16:01:53.125Z,9.10
2023-01-02T16:04:33.928Z,9.20
2023-01-02T16:07:28.765Z,9.20
2023-01-02T16:09:56.700Z,9.20
2023-01-02T16:12:24.351Z,9.20
2023-01-02T16:14:55.632Z,9.20
2023-01-02T16:17:39.563Z,9.10
2023-01-02T16:20:17.873Z,9.20
2023-01-02T16:22:48.006Z,9.10
2023-01-02T16:25:22.713Z,9.20
2023-01-02T16:28:35.779Z,9.20
2023-01-02T16:31:10.121Z,9.20
2023-01-02T16:33:37.854Z,9.20
2023-01-02T16:36:04.595Z,9.20
2023-01-02T16:38:33.009Z,9.10
2023-01-02T16:41:05.103Z,9.10
2023-01-02T16:43:36.735Z,9.10
2023-01-02T16:46:14.077Z,9.10
2023-01-02T16:48:42.545Z,9.10
2023-01-02T16:51:09.538Z,9.10
2023-01-02T16:53:36.594Z,9.10
2023-01-02T16:56:03.620Z,9.20
2023-01-02T16:58:30.578Z,9.10
2023-01-02T17:00:57.660Z,9.10
2023-01-02T17:03:26.613Z,9.10
2023-01-02T17:06:02.233Z,9.10
2023-01-02T17:08:33.831Z,9.10
2023-01-02T17:11:01.271Z,9.00
2023-01-02T17:13:29.543Z,9.10
2023-01-02T17:15:57.116Z,9.10
2023-01-02T17:18:24.301Z,9.10
2023-01-02T17:20:51.652Z,9.00
2023-01-02T17:23:19.598Z,9.00
2023-01-02T17:25:47.273Z,9.00
2023-01-02T17:28:15.086Z,9.00
2023-01-02T17:30:44.250Z,9.00
2023-01-02T17:33:11.876Z,9.00
2023-01-02T17:35:39.169Z,9.00
2023-01-02T17:38:06.734Z,9.00
2023-01-02T17:40:33.877Z,9.00
2023-01-02T17:43:00.805Z,9.10
2023-01-02T17:45:29.038Z,9.10
2023-01-02T17:48:03.973Z,9.00
2023-01-02T17:50:37.190Z,9.00
2023-01-02T17:53:07.369Z,9.00
2023-01-02T17:55:34.362Z,9.00
2023-01-02T17:58:01.325Z,9.00
2023-01-02T18:00:28.409Z,9.00
2023-01-02T18:02:55.356Z,9.00
2023-01-02T18:05:22.909Z,9.00
2023-01-02T18:07:49.941Z,9.00
2023-01-02T18:10:20.376Z,9.00
2023-01-02T18:12:49.627Z,9.00
2023-01-02T18:15:19.758Z,9.00
2023-01-02T18:17:47.207Z,9.00
2023-01-02T18:20:19.695Z,8.90
2023-01-02T18:22:49.897Z,9.00
2023-01-02T18:25:29.953Z,9.00
2023-01-02T18:28:05.197Z,9.00
2023-01-02T18:30:32.168Z,9.00
2023-01-02T18:33:18.616Z,9.00
2023-01-02T18:35:58.198Z,9.00
2023-01-02T18:38:34.125Z,9.00
2023-01-02T18:41:13.842Z,9.00
2023-01-02T18:43:41.617Z,8.80
2023-01-02T18:46:21.600Z,8.70
2023-01-02T18:48:48.585Z,8.70
2023-01-02T18:51:21.722Z,8.60
2023-01-02T18:53:53.321Z,8.50
2023-01-02T18:56:24.947Z,8.50
2023-01-02T18:59:31.558Z,8.50
2023-01-02T19:02:02.492Z,8.50
2023-01-02T19:04:35.478Z,8.40
2023-01-02T19:07:35.071Z,8.40
2023-01-02T19:10:07.744Z,8.40
2023-01-02T19:13:04.683Z,8.40
2023-01-02T19:15:47.801Z,8.40
2023-01-02T19:18:14.653Z,8.30
2023-01-02T19:20:54.570Z,8.30
2023-01-02T19:23:35.177Z,8.20
2023-01-02T19:26:18.570Z,8.30
2023-01-02T19:29:18.731Z,8.20
2023-01-02T19:31:59.946Z,8.20
2023-01-02T19:34:28.547Z,8.10
2023-01-02T19:37:06.139Z,8.10
2023-01-02T19:39:35.668Z,8.10
2023-01-02T19:42:20.565Z,8.00
2023-01-02T19:44:53.152Z,8.00
2023-01-02T19:47:23.337Z,8.00
2023-01-02T19:49:51.128Z,8.00
2023-01-02T19:52:19.200Z,8.00
2023-01-02T19:54:47.977Z,7.90
2023-01-02T19:57:17.717Z,8.00
2023-01-02T19:59:45.812Z,7.90
2023-01-02T20:02:14.420Z,7.90
2023-01-02T20:04:42.580Z,7.90
2023-01-02T20:07:09.939Z,7.90
2023-01-02T20:09:37.156Z,7.80
2023-01-02T20:12:23.322Z,7.80
2023-01-02T20:14:50.377Z,7.90
2023-01-02T20:17:17.184Z,8.00
2023-01-02T20:19:43.988Z,7.80
2023-01-02T20:22:11.873Z,7.80
2023-01-02T20:24:38.721Z,7.90
2023-01-02T20:27:05.592Z,7.80
2023-01-02T20:29:32.544Z,7.80
2023-01-02T20:31:59.871Z,7.90
2023-01-02T20:34:26.670Z,7.90
2023-01-02T20:36:53.996Z,8.00
2023-01-02T20:39:21.091Z,8.00
2023-01-02T20:41:47.967Z,8.00
2023-01-02T20:44:15.625Z,7.90
2023-01-02T20:46:42.905Z,7.90
2023-01-02T20:49:10.913Z,7.90
2023-01-02T20:51:37.898Z,8.00
2023-01-02T20:54:06.263Z,8.00
2023-01-02T20:56:33.421Z,8.00
2023-01-02T20:59:00.614Z,8.00
2023-01-02T21:01:28.018Z,8.00
2023-01-02T21:03:55.074Z,8.00
2023-01-02T21:06:21.908Z,8.00
2023-01-02T21:08:48.697Z,8.10
2023-01-02T21:11:15.589Z,8.00
2023-01-02T21:13:42.413Z,8.00
2023-01-02T21:16:09.234Z,8.00
2023-01-02T21:18:40.909Z,8.00
2023-01-02T21:21:10.954Z,7.90
2023-01-02T21:23:39.567Z,7.90
2023-01-02T21:26:08.463Z,7.80
2023-01-02T21:28:35.864Z,7.80
2023-01-02T21:31:03.491Z,7.80
2023-01-02T21:33:31.323Z,7.80
2023-01-02T21:36:00.501Z,7.80
2023-01-02T21:38:28.661Z,7.70
2023-01-02T21:41:16.605Z,7.70
2023-01-02T21:43:43.753Z,7.70
2023-01-02T21:46:10.756Z,7.60
2023-01-02T21:48:40.973Z,7.60
2023-01-02T21:51:08.452Z,7.70
2023-01-02T21:53:35.533Z,7.70
2023-01-02T21:56:02.506Z,7.70
2023-01-02T21:58:29.280Z,7.70
2023-01-02T22:00:56.185Z,7.70
2023-01-02T22:03:23.188Z,7.70
2023-01-02T22:05:50.628Z,7.70
2023-01-02T22:08:17.558Z,7.70
2023-01-02T22:10:44.357Z,7.80
2023-01-02T22:13:11.244Z,7.70
2023-01-02T22:15:38.132Z,7.80
2023-01-02T22:18:11.604Z,7.80
2023-01-02T22:20:40.735Z,7.80
2023-01-02T22:23:07.581Z,7.80
2023-01-02T22:25:34.440Z,7.80
2023-01-02T22:28:01.423Z,7.80
2023-01-02T22:30:34.418Z,7.80
2023-01-02T22:33:01.969Z,7.80
2023-01-02T22:35:28.937Z,7.80
2023-01-02T22:37:57.255Z,7.80
2023-01-02T22:40:24.105Z,7.80
2023-01-02T22:43:03.389Z,7.70
2023-01-02T22:45:35.613Z,7.70
2023-01-02T22:48:06.716Z,7.60
2023-01-02T22:50:41.612Z,7.50
2023-01-02T22:53:21.420Z,7.50
2023-01-02T22:55:48.711Z,7.40
2023-01-02T22:58:15.769Z,7.30
2023-01-02T23:00:42.752Z,7.40
2023-01-02T23:03:14.395Z,7.30
2023-01-02T23:05:41.995Z,7.30
2023-01-02T23:08:08.940Z,7.20
2023-01-02T23:10:35.835Z,7.20
2023-01-02T23:13:02.925Z,7.20
2023-01-02T23:15:29.867Z,7.20
2023-01-02T23:18:15.724Z,7.20
2023-01-02T23:20:42.619Z,7.20
2023-01-02T23:23:09.558Z,7.20
2023-01-02T23:25:41.014Z,7.10
2023-01-02T23:28:07.894Z,7.10
2023-01-02T23:30:34.847Z,7.00
2023-01-02T23:33:01.719Z,7.10
2023-01-02T23:35:28.650Z,7.00
2023-01-02T23:37:55.448Z,7.10
2023-01-02T23:40:22.257Z,7.00
2023-01-02T23:42:49.109Z,7.00
2023-01-02T23:45:16.044Z,6.80
2023-01-02T23:47:42.818Z,6.70
2023-01-02T23:50:10.040Z,6.70
2023-01-02T23:52:36.883Z,6.80
2023-01-02T23:55:03.942Z,6.70
2023-01-02T23:57:30.773Z,6.70
2023-01-02T23:59:57.567Z,6.60
